Terminal Aerodrome Forecast
Issued by NWS Cleveland, OH

Home | Current Version | Previous Version | Graphics & Text | Print | Product List | Glossary On
Versions: 1 2 3 4 5 6 7 8 9 10 11 12 13 14 15 16 17 18 19 20
658
FTUS41 KCLE 100414 AAA
TAFCAK
TAF AMD
KCAK 100414Z 1004/1024 30012G22KT 4SM -SN BKN016
      TEMPO 1004/1007 6SM -SN OVC020
     FM100700 27012KT P6SM OVC025
     FM101400 25012KT 5SM -SHSN BKN020
     FM101700 27012KT 2SM -SN OVC012=

USA.gov is the U.S. government's official web portal to all federal, state and local government web resources and services.